Time;durP1;ratioP1;P1;durP2;ratioP2;P2;SDS_P1;SDS_P2;PMS_P1;PMS_P2;Temp;Humidity;BMP_temperature;BMP_pressure;BME280_temperature;BME280_humidity;BME280_pressure;Samples;Min_cycle;Max_cycle;Signal;HPM_P1;HPM_P2
2022/06/24 00:00:15;;;;;;;9.60;7.10;;;;;;;14.34;73.29;101384.67;1711775;82;21092;-86
2022/06/24 00:02:48;;;;;;;12.20;7.35;;;;;;;14.32;73.33;101384.67;1709560;83;21106;-93
2022/06/24 00:05:15;;;;;;;10.30;6.65;;;;;;;14.29;73.38;101376.65;1708265;83;21154;-93
2022/06/24 00:07:57;;;;;;;10.70;7.15;;;;;;;14.28;73.45;101377.94;1718170;82;21082;-93
2022/06/24 00:10:27;;;;;;;10.58;6.72;;;;;;;14.27;73.49;101375.73;1700048;83;21129;-87
2022/06/24 00:13:19;;;;;;;8.15;6.85;;;;;;;14.26;73.51;101380.55;1736306;81;22025;-93
2022/06/24 00:15:46;;;;;;;10.13;7.37;;;;;;;14.24;73.58;101374.34;1738340;82;22646;-92
2022/06/24 00:18:16;;;;;;;13.22;8.00;;;;;;;14.20;73.61;101374.70;1708681;83;21421;-92
2022/06/24 00:20:55;;;;;;;9.78;7.10;;;;;;;14.20;73.72;101376.02;1719277;83;21048;-93
2022/06/24 00:23:22;;;;;;;11.55;7.10;;;;;;;14.18;73.77;101370.25;1710943;83;21060;-88
2022/06/24 00:25:53;;;;;;;12.55;7.20;;;;;;;14.18;73.79;101377.75;1710860;82;21085;-92
2022/06/24 00:28:20;;;;;;;10.78;6.97;;;;;;;14.18;73.80;101374.22;1727498;82;21796;-92
2022/06/24 00:30:54;;;;;;;8.25;6.85;;;;;;;14.16;73.82;101374.19;1685285;83;21090;-91
2022/06/24 00:33:23;;;;;;;10.40;7.97;;;;;;;14.12;73.82;101378.08;1709492;83;21064;-91
2022/06/24 00:35:58;;;;;;;13.43;6.58;;;;;;;14.08;73.90;101374.91;1725729;82;21202;-92
2022/06/24 00:38:29;;;;;;;10.80;6.75;;;;;;;14.05;73.97;101378.81;1726798;82;21824;-92
2022/06/24 00:41:13;;;;;;;9.85;7.55;;;;;;;14.06;74.07;101379.25;1709048;82;22683;-90
2022/06/24 00:43:43;;;;;;;10.82;7.83;;;;;;;14.04;74.11;101377.92;1720706;82;21107;-85
2022/06/24 00:46:29;;;;;;;10.48;7.80;;;;;;;14.04;74.13;101377.92;1718419;82;21094;-90
2022/06/24 00:48:57;;;;;;;9.50;7.08;;;;;;;14.04;74.21;101376.59;1722889;82;21857;-85
2022/06/24 00:51:33;;;;;;;8.93;7.25;;;;;;;13.91;74.18;101356.03;1739421;82;21054;-91
2022/06/24 00:54:09;;;;;;;12.07;8.38;;;;;;;14.01;74.28;101375.20;1713472;83;21853;-86
2022/06/24 00:56:39;;;;;;;10.32;6.85;;;;;;;13.99;74.31;101371.19;1715731;82;21594;-89
2022/06/24 00:59:07;;;;;;;11.80;7.58;;;;;;;13.96;74.35;101375.52;1727636;82;21044;-89
2022/06/24 01:01:38;;;;;;;9.45;7.45;;;;;;;13.95;74.41;101379.05;1716063;82;21104;-87
2022/06/24 01:04:07;;;;;;;10.18;7.42;;;;;;;13.92;74.47;101377.21;1710572;82;21043;-88
2022/06/24 01:06:39;;;;;;;11.25;7.03;;;;;;;13.91;74.55;101380.73;1710286;82;21698;-89
2022/06/24 01:09:07;;;;;;;8.00;7.20;;;;;;;13.89;74.58;101380.22;1705784;82;21531;-86
2022/06/24 01:11:36;;;;;;;11.10;7.85;;;;;;;13.90;74.67;101374.08;1706704;82;21079;-86
2022/06/24 01:14:03;;;;;;;9.55;7.50;;;;;;;13.89;74.69;101374.92;1712214;82;21622;-85
2022/06/24 01:16:30;;;;;;;10.25;7.80;;;;;;;13.86;74.70;101372.23;1739618;82;21078;-85
2022/06/24 01:19:01;;;;;;;10.15;7.22;;;;;;;13.84;74.85;101374.84;1719795;82;21772;-85
2022/06/24 01:21:48;;;;;;;11.18;7.05;;;;;;;13.83;74.84;101369.52;1719778;82;21167;-86
2022/06/24 01:24:24;;;;;;;11.80;7.03;;;;;;;13.83;74.91;101377.45;1719030;82;21078;-86
2022/06/24 01:26:56;;;;;;;10.58;7.53;;;;;;;13.80;74.94;101373.88;1732600;82;21095;-89
2022/06/24 01:29:23;;;;;;;11.43;7.55;;;;;;;13.80;75.10;101367.70;1736780;82;21075;-90
2022/06/24 01:31:50;;;;;;;11.60;7.50;;;;;;;13.82;75.13;101369.95;1739335;82;21685;-90
2022/06/24 01:34:20;;;;;;;11.05;7.33;;;;;;;13.83;75.14;101377.45;1740209;82;21687;-91
2022/06/24 01:36:47;;;;;;;9.08;7.35;;;;;;;13.82;75.24;101373.03;1730445;82;21137;-91
2022/06/24 01:39:14;;;;;;;9.53;7.10;;;;;;;13.80;75.22;101371.23;1702369;83;21100;-87
2022/06/24 01:41:47;;;;;;;8.05;6.97;;;;;;;13.78;75.27;101365.45;1736627;82;21625;-92
2022/06/24 01:44:14;;;;;;;9.15;7.33;;;;;;;13.78;75.45;101369.42;1715686;82;22171;-91
2022/06/24 01:46:41;;;;;;;14.65;8.25;;;;;;;13.79;75.49;101372.11;1715751;82;21058;-90
2022/06/24 01:49:08;;;;;;;12.13;8.30;;;;;;;13.78;75.58;101369.42;1710665;82;21086;-86
2022/06/24 01:51:36;;;;;;;11.83;8.03;;;;;;;13.77;75.63;101368.51;1709572;81;21236;-91
2022/06/24 01:54:02;;;;;;;14.43;7.92;;;;;;;13.77;75.70;101374.23;1738213;82;21071;-86
2022/06/24 01:56:29;;;;;;;15.45;9.55;;;;;;;13.77;75.79;101375.13;1716225;82;21762;-86
2022/06/24 01:58:56;;;;;;;9.70;7.58;;;;;;;13.79;75.87;101373.44;1714320;82;21054;-91
2022/06/24 02:01:23;;;;;;;9.83;7.42;;;;;;;13.80;76.00;101372.99;1709327;82;21082;-91
2022/06/24 02:03:50;;;;;;;11.90;7.25;;;;;;;13.84;76.08;101368.22;1726435;82;21058;-87
2022/06/24 02:06:17;;;;;;;13.93;7.12;;;;;;;13.85;76.09;101369.11;1694661;83;21096;-87
2022/06/24 02:08:44;;;;;;;10.70;7.20;;;;;;;13.87;76.18;101369.63;1676121;84;22494;-87
2022/06/24 02:13:57;;;;;;;12.55;7.83;;;;;;;13.92;76.26;101367.06;1675310;84;21352;-87
2022/06/24 02:16:24;;;;;;;14.20;8.75;;;;;;;13.95;76.33;101372.44;1672200;82;21120;-87
2022/06/24 02:18:51;;;;;;;11.22;8.55;;;;;;;13.98;76.34;101375.13;1689585;84;21142;-87
2022/06/24 02:21:20;;;;;;;11.80;8.13;;;;;;;14.00;76.37;101375.64;1656277;83;21806;-87
2022/06/24 02:23:47;;;;;;;10.53;8.00;;;;;;;14.03;76.37;101375.23;1672765;85;21098;-86
2022/06/24 02:26:13;;;;;;;12.07;7.97;;;;;;;14.07;76.47;101371.34;1680478;84;22459;-87
2022/06/24 02:28:40;;;;;;;12.95;8.48;;;;;;;14.09;76.41;101368.30;1688708;84;21138;-87
2022/06/24 02:31:09;;;;;;;10.08;8.38;;;;;;;14.11;76.39;101365.25;1677371;84;21147;-86
2022/06/24 02:33:35;;;;;;;13.03;8.80;;;;;;;14.14;76.37;101365.32;1703612;84;21829;-86
2022/06/24 02:36:02;;;;;;;10.00;7.42;;;;;;;14.15;76.36;101360.50;1683578;84;21568;-86
2022/06/24 02:38:29;;;;;;;9.25;7.37;;;;;;;14.19;76.49;101366.31;1698399;83;21060;-90
2022/06/24 02:40:59;;;;;;;8.53;6.97;;;;;;;14.26;76.50;101369.08;1683119;83;21116;-86
2022/06/24 02:43:28;;;;;;;10.80;7.65;;;;;;;14.30;76.42;101373.56;1717688;83;21107;-86
2022/06/24 02:46:03;;;;;;;10.53;7.55;;;;;;;14.34;76.32;101371.43;1640306;85;21779;-86
2022/06/24 02:48:32;;;;;;;12.05;7.60;;;;;;;14.38;76.33;101369.33;1673516;83;21093;-91
2022/06/24 02:51:03;;;;;;;11.63;7.42;;;;;;;14.46;76.39;101374.77;1698743;84;21173;-93
2022/06/24 02:53:37;;;;;;;9.00;6.72;;;;;;;14.52;76.33;101373.11;1693659;84;21707;-92
2022/06/24 02:56:05;;;;;;;;;;;;;;;14.57;76.32;101374.58;1698903;83;21536;-92
2022/06/24 02:58:32;;;;;;;10.85;7.80;;;;;;;14.65;76.38;101380.89;1686218;84;21783;-92
2022/06/24 03:00:59;;;;;;;9.55;7.40;;;;;;;14.72;76.27;101378.83;1678404;84;22391;-89
2022/06/24 03:03:26;;;;;;;10.32;7.25;;;;;;;14.80;76.25;101377.62;1687827;84;21057;-91
2022/06/24 03:05:53;;;;;;;7.72;6.95;;;;;;;14.87;76.11;101379.97;1705317;83;21581;-91
2022/06/24 03:08:21;;;;;;;12.37;7.28;;;;;;;14.89;76.09;101376.47;1680749;83;22521;-86
2022/06/24 03:10:49;;;;;;;10.20;6.95;;;;;;;15.03;76.00;101383.77;1692465;83;21798;-86
2022/06/24 03:13:15;;;;;;;8.53;6.97;;;;;;;15.11;75.90;101380.38;1688961;83;21091;-86
2022/06/24 03:15:43;;;;;;;10.30;7.62;;;;;;;15.16;75.60;101383.09;1676686;85;21086;-87
2022/06/24 03:18:14;;;;;;;10.60;7.62;;;;;;;15.22;75.58;101381.89;1667225;84;21111;-93
2022/06/24 03:20:41;;;;;;;11.20;6.95;;;;;;;15.29;75.42;101379.77;1681865;84;21154;-87
2022/06/24 03:23:07;;;;;;;11.33;6.85;;;;;;;15.38;75.37;101380.36;1713711;82;21770;-87
2022/06/24 03:25:34;;;;;;;10.13;6.85;;;;;;;15.50;75.37;101378.31;1703900;83;21032;-87
2022/06/24 03:28:01;;;;;;;10.15;7.20;;;;;;;15.67;75.27;101382.53;1714594;83;21115;-94
2022/06/24 03:30:28;;;;;;;14.45;7.70;;;;;;;16.03;76.14;101378.20;1715916;82;21092;-87
2022/06/24 03:33:01;;;;;;;15.72;8.00;;;;;;;17.25;77.65;101378.14;1698969;83;21063;-87
2022/06/24 03:35:28;;;;;;;24.47;8.90;;;;;;;18.28;76.26;101378.70;1673877;84;22962;-87
2022/06/24 03:37:59;;;;;;;30.62;10.00;;;;;;;19.45;75.40;101371.30;1692372;83;21624;-86
2022/06/24 03:40:29;;;;;;;21.57;9.55;;;;;;;19.77;71.90;101383.27;1724546;82;21082;-93
2022/06/24 03:42:55;;;;;;;16.25;7.95;;;;;;;19.41;70.27;101377.08;1692905;82;21609;-93
2022/06/24 03:45:22;;;;;;;10.58;7.17;;;;;;;19.07;69.64;101385.53;1704895;84;21124;-90
2022/06/24 03:47:49;;;;;;;10.82;7.17;;;;;;;18.92;69.46;101382.41;1665790;85;21714;-87
2022/06/24 03:50:16;;;;;;;13.32;6.83;;;;;;;18.89;69.50;101389.98;1701675;84;21071;-91
2022/06/24 03:52:43;;;;;;;12.05;6.60;;;;;;;19.26;70.16;101381.08;1706323;82;21139;-87
2022/06/24 03:55:10;;;;;;;7.67;5.47;;;;;;;20.07;70.46;101372.03;1689415;83;21025;-91
2022/06/24 03:57:53;;;;;;;9.08;5.58;;;;;;;21.86;71.48;101372.41;1731844;80;20969;-96
2022/06/24 04:00:29;;;;;;;;;;;;;;;23.99;69.77;101380.71;1718749;82;21811;-91
2022/06/24 04:02:56;;;;;;;13.45;6.50;;;;;;;26.03;66.60;101377.95;1718296;82;20399;-90
2022/06/24 04:05:28;;;;;;;11.03;5.37;;;;;;;27.69;64.53;101381.14;1671440;84;21005;-93
2022/06/24 04:07:57;;;;;;;8.08;5.28;;;;;;;29.16;62.20;101378.56;1731071;82;21130;-92
2022/06/24 04:10:29;;;;;;;8.48;5.10;;;;;;;30.33;59.44;101373.35;1730510;81;22109;-95
2022/06/24 04:13:01;;;;;;;10.70;5.25;;;;;;;31.47;57.57;101377.67;1720588;82;21780;-93
2022/06/24 04:15:28;;;;;;;5.97;4.97;;;;;;;32.52;55.36;101379.15;1741429;82;21538;-88
2022/06/24 04:17:55;;;;;;;7.42;5.50;;;;;;;33.38;53.06;101371.89;1718620;82;21673;-87
2022/06/24 04:24:21;;;;;;;10.20;5.62;;;;;;;35.04;49.53;101375.38;1746463;82;21529;-95
2022/06/24 04:26:48;;;;;;;7.30;4.78;;;;;;;36.12;47.08;101378.80;1732870;82;21780;-84
2022/06/24 04:29:15;;;;;;;5.33;4.75;;;;;;;36.71;45.46;101377.62;1716703;82;21748;-91
2022/06/24 04:31:42;;;;;;;7.53;4.92;;;;;;;37.33;44.43;101381.16;1716142;82;21106;-85
2022/06/24 04:34:08;;;;;;;7.70;5.40;;;;;;;37.82;42.88;101382.77;1711655;83;21098;-95
2022/06/24 04:36:37;;;;;;;9.13;5.67;;;;;;;38.18;41.26;101382.69;1731908;81;21078;-87
2022/06/24 04:39:03;;;;;;;9.13;5.03;;;;;;;38.48;40.01;101378.78;1723452;81;21767;-85
2022/06/24 04:41:30;;;;;;;10.43;5.53;;;;;;;38.79;39.33;101384.98;1739089;81;21088;-84
2022/06/24 04:44:00;;;;;;;6.17;4.40;;;;;;;39.27;38.47;101384.56;1739456;81;21130;-84
2022/06/24 04:46:27;;;;;;;7.58;4.95;;;;;;;39.78;37.54;101383.75;1705090;83;21079;-84
2022/06/24 04:48:54;;;;;;;4.92;4.42;;;;;;;40.27;36.49;101396.40;1718607;83;21364;-84
2022/06/24 04:51:20;;;;;;;6.20;4.70;;;;;;;40.80;35.44;101396.64;1732000;82;21742;-84
2022/06/24 04:53:47;;;;;;;6.10;4.28;;;;;;;41.07;34.73;101393.67;1736248;81;21085;-83
2022/06/24 04:56:14;;;;;;;7.20;4.33;;;;;;;41.51;33.84;101396.88;1722398;81;21588;-84
2022/06/24 04:58:49;;;;;;;8.63;4.58;;;;;;;41.62;33.01;101395.31;1689108;82;21337;-89
2022/06/24 05:01:50;;;;;;;8.93;4.53;;;;;;;41.96;32.40;101392.03;1744772;82;21058;-94
2022/06/24 05:04:32;;;;;;;8.35;4.12;;;;;;;42.16;31.50;101395.63;1726171;82;21776;-91
2022/06/24 05:07:15;;;;;;;7.45;5.15;;;;;;;42.30;30.96;101389.56;1711435;82;21060;-91
2022/06/24 05:09:42;;;;;;;7.00;4.80;;;;;;;42.69;30.60;101385.73;1705929;83;21063;-87
2022/06/24 05:12:16;;;;;;;10.95;4.50;;;;;;;42.93;29.75;101381.47;1704776;84;21104;-87
2022/06/24 05:15:24;;;;;;;9.53;4.25;;;;;;;43.20;29.13;101384.67;1686999;84;21060;-88
2022/06/24 05:17:51;;;;;;;8.55;4.00;;;;;;;43.39;28.76;101385.88;1686800;84;22607;-87
2022/06/24 05:20:18;;;;;;;8.80;4.40;;;;;;;43.70;28.23;101381.29;1675579;84;21597;-86
2022/06/24 05:22:44;;;;;;;13.85;4.20;;;;;;;44.02;27.68;101385.28;1693104;84;21076;-85
2022/06/24 05:25:11;;;;;;;9.23;4.05;;;;;;;44.30;27.36;101384.55;1699683;82;21079;-85
2022/06/24 05:27:38;;;;;;;6.45;4.00;;;;;;;44.51;26.76;101382.73;1702738;82;21037;-85
2022/06/24 05:30:10;;;;;;;5.35;3.65;;;;;;;44.54;26.30;101376.83;1708329;83;21977;-86
2022/06/24 05:32:35;;;;;;;6.72;3.30;;;;;;;44.49;26.03;101378.34;1703629;83;21243;-85
2022/06/24 05:35:02;;;;;;;6.95;3.75;;;;;;;44.47;25.78;101385.97;1703584;82;21079;-87
2022/06/24 05:37:28;;;;;;;8.45;3.90;;;;;;;44.54;25.63;101390.70;1698231;82;21095;-87
2022/06/24 05:39:56;;;;;;;7.20;3.55;;;;;;;44.57;25.05;101387.60;1700181;82;21052;-87
2022/06/24 05:42:27;;;;;;;6.92;3.87;;;;;;;44.39;25.14;101391.84;1701544;83;21749;-86
2022/06/24 05:44:53;;;;;;;9.30;3.50;;;;;;;43.59;24.41;101384.30;1700355;83;21064;-86
2022/06/24 05:47:24;;;;;;;5.28;3.10;;;;;;;41.19;24.60;101385.09;1702928;83;21091;-85
2022/06/24 05:49:52;;;;;;;7.60;3.67;;;;;;;38.74;25.47;101381.23;1702966;82;21150;-86
2022/06/24 05:55:02;;;;;;;7.47;3.77;;;;;;;36.49;26.73;101384.31;1706044;83;21093;-86
2022/06/24 05:55:05;;;;;;;6.25;3.67;;;;;;;34.75;28.10;101378.73;1694406;83;21766;-86
2022/06/24 05:57:31;;;;;;;4.00;3.37;;;;;;;33.37;29.28;101383.76;1701616;83;21102;-86
2022/06/24 06:00:00;;;;;;;4.28;3.60;;;;;;;32.01;30.34;101380.23;1703396;82;21107;-87
2022/06/24 06:02:29;;;;;;;5.00;3.87;;;;;;;30.96;31.34;101374.34;1703665;82;21259;-86
2022/06/24 06:05:06;;;;;;;6.53;3.77;;;;;;;30.09;32.41;101379.89;1675877;83;21347;-86
2022/06/24 06:07:48;;;;;;;6.17;3.62;;;;;;;29.24;33.46;101375.07;1683483;83;21778;-89
2022/06/24 06:10:14;;;;;;;6.58;3.72;;;;;;;28.55;34.45;101374.30;1723520;82;21858;-86
2022/06/24 06:12:41;;;;;;;8.35;3.87;;;;;;;28.01;35.54;101375.91;1672853;84;21107;-88
2022/06/24 06:15:11;;;;;;;7.33;4.70;;;;;;;27.65;36.33;101376.80;1684519;84;21111;-90
2022/06/24 06:17:37;;;;;;;7.70;4.37;;;;;;;27.26;37.11;101374.56;1659846;85;21186;-87
2022/06/24 06:20:05;;;;;;;8.83;4.60;;;;;;;26.93;37.78;101378.33;1653026;84;22609;-87
2022/06/24 06:22:32;;;;;;;6.42;4.20;;;;;;;26.64;38.37;101379.75;1667350;84;21135;-85
2022/06/24 06:24:59;;;;;;;9.10;4.72;;;;;;;26.41;39.16;101373.23;1657905;85;21131;-86
2022/06/24 06:27:26;;;;;;;6.95;4.58;;;;;;;26.16;39.67;101375.30;1639930;86;21090;-86
2022/06/24 06:29:53;;;;;;;9.38;4.75;;;;;;;25.96;40.30;101372.34;1643507;85;21116;-83
2022/06/24 06:32:19;;;;;;;10.55;5.60;;;;;;;25.75;40.88;101377.38;1674082;85;21746;-87
2022/06/24 06:34:46;;;;;;;14.75;4.97;;;;;;;25.58;41.60;101379.20;1664491;85;21091;-84
2022/06/24 06:37:13;;;;;;;7.60;5.70;;;;;;;25.41;42.24;101379.66;1672359;84;21118;-87
2022/06/24 06:39:40;;;;;;;8.63;5.25;;;;;;;25.25;42.74;101379.64;1679390;84;21086;-89
2022/06/24 06:42:07;;;;;;;12.05;5.58;;;;;;;25.14;43.36;101381.22;1660363;84;21094;-85
2022/06/24 06:44:34;;;;;;;10.68;6.62;;;;;;;25.01;43.31;101389.19;1693571;84;21758;-85
2022/06/24 06:47:00;;;;;;;6.75;5.40;;;;;;;24.88;43.62;101385.03;1679271;83;21131;-85
2022/06/24 06:49:28;;;;;;;9.25;5.85;;;;;;;24.81;44.04;101387.89;1694399;83;21125;-84
2022/06/24 06:51:54;;;;;;;10.63;6.08;;;;;;;24.77;44.54;101385.28;1684939;83;21402;-84
2022/06/24 06:54:21;;;;;;;5.60;5.10;;;;;;;24.72;44.79;101384.06;1643552;85;21353;-84
2022/06/24 06:56:48;;;;;;;9.15;5.95;;;;;;;24.71;45.15;101384.09;1681614;83;21761;-84
2022/06/24 06:59:15;;;;;;;12.93;6.17;;;;;;;24.67;45.01;101385.97;1672312;84;21079;-85
2022/06/24 07:01:41;;;;;;;10.82;7.05;;;;;;;24.61;45.25;101384.31;1665027;84;77290;-86
2022/06/24 07:04:08;;;;;;;9.43;6.28;;;;;;;24.52;45.47;101383.64;1705199;82;21051;-86
2022/06/24 07:06:35;;;;;;;10.13;6.25;;;;;;;24.44;45.68;101385.13;1705310;82;20988;-87
2022/06/24 07:09:02;;;;;;;8.00;6.42;;;;;;;24.42;45.87;101382.47;1705413;82;21858;-87
2022/06/24 07:11:29;;;;;;;11.12;6.10;;;;;;;24.34;45.90;101376.36;1701457;82;21506;-87
2022/06/24 07:13:55;;;;;;;11.00;5.80;;;;;;;24.32;46.20;101371.94;1703957;82;21036;-86
2022/06/24 07:16:22;;;;;;;10.25;8.20;;;;;;;24.32;46.10;101374.16;1704680;82;21430;-86
2022/06/24 07:18:49;;;;;;;6.50;5.58;;;;;;;24.29;46.32;101367.53;1705929;82;21106;-86
2022/06/24 07:21:15;;;;;;;11.83;6.20;;;;;;;24.32;46.62;101371.47;1705304;82;21766;-86
2022/06/24 07:23:42;;;;;;;9.35;5.80;;;;;;;24.35;46.83;101373.23;1702891;82;20939;-86
2022/06/24 07:26:09;;;;;;;11.15;5.22;;;;;;;24.32;46.77;101367.91;1704448;82;21069;-86
2022/06/24 07:28:35;;;;;;;9.28;5.47;;;;;;;24.29;46.97;101372.91;1705578;82;21074;-86
2022/06/24 07:31:18;;;;;;;7.33;4.37;;;;;;;24.31;47.25;101372.41;1674165;83;21076;-86
2022/06/24 07:33:46;;;;;;;9.33;4.83;;;;;;;24.36;47.38;101372.30;1705371;82;21751;-86
2022/06/24 07:36:13;;;;;;;9.35;4.80;;;;;;;24.43;47.42;101366.73;1704645;82;21490;-87
2022/06/24 07:38:39;;;;;;;6.65;4.50;;;;;;;24.51;47.48;101372.41;1702070;82;21388;-87
2022/06/24 07:41:08;;;;;;;7.10;4.58;;;;;;;24.52;47.38;101367.50;1710973;82;20968;-86
2022/06/24 07:43:36;;;;;;;9.20;4.95;;;;;;;24.54;47.28;101371.03;1705512;82;21543;-87
2022/06/24 07:46:03;;;;;;;6.00;4.85;;;;;;;24.57;47.59;101368.25;1708614;82;21817;-86
2022/06/24 07:48:29;;;;;;;5.03;4.45;;;;;;;24.62;47.44;101367.69;1701590;82;21059;-86
2022/06/24 07:50:56;;;;;;;8.55;5.00;;;;;;;24.62;47.16;101366.34;1703946;82;21075;-86
2022/06/24 07:53:23;;;;;;;8.95;4.95;;;;;;;24.67;47.14;101366.25;1653195;84;21102;-87
2022/06/24 07:58:35;;;;;;;8.28;4.97;;;;;;;24.76;47.25;101364.69;1669072;84;21812;-86
2022/06/24 08:01:02;;;;;;;6.42;4.87;;;;;;;24.82;47.51;101362.72;1702150;82;21074;-86
2022/06/24 08:03:28;;;;;;;7.95;5.15;;;;;;;24.89;47.40;101358.08;1699196;82;21509;-86
2022/06/24 08:05:55;;;;;;;4.40;3.50;;;;;;;24.96;47.32;101358.78;1691254;82;21086;-86
2022/06/24 08:08:22;;;;;;;7.47;3.58;;;;;;;25.02;47.51;101354.14;1700435;82;21091;-86
2022/06/24 08:10:49;;;;;;;6.75;5.60;;;;;;;25.09;47.21;101350.81;1700652;82;22645;-87
2022/06/24 08:13:15;;;;;;;8.45;5.85;;;;;;;25.13;47.03;101355.22;1706772;82;21640;-87
2022/06/24 08:15:43;;;;;;;4.10;3.70;;;;;;;25.18;46.76;101351.92;1703856;82;20998;-86
2022/06/24 08:18:09;;;;;;;5.28;3.47;;;;;;;25.24;46.78;101348.69;1709374;82;21040;-86
2022/06/24 08:20:36;;;;;;;8.53;6.17;;;;;;;25.28;46.59;101341.81;1705907;82;21047;-86
2022/06/24 08:23:03;;;;;;;5.90;5.30;;;;;;;25.33;46.58;101347.97;1705741;82;21719;-86
2022/06/24 08:25:29;;;;;;;9.50;8.35;;;;;;;25.37;46.46;101340.22;1706788;82;21073;-87
2022/06/24 08:27:56;;;;;;;4.80;3.90;;;;;;;25.43;46.52;101347.72;1700203;83;21050;-86
2022/06/24 08:30:23;;;;;;;7.45;3.77;;;;;;;25.46;46.44;101341.79;1707068;83;21087;-86
2022/06/24 08:32:50;;;;;;;10.35;3.45;;;;;;;25.49;46.50;101332.28;1705295;82;22117;-86
2022/06/24 08:35:17;;;;;;;4.65;3.30;;;;;;;25.55;46.20;101333.45;1701711;82;22546;-86
2022/06/24 08:37:44;;;;;;;5.15;3.65;;;;;;;25.59;45.98;101331.55;1701506;82;21519;-86
2022/06/24 08:40:12;;;;;;;4.50;3.33;;;;;;;25.62;45.77;101323.39;1700535;83;21037;-86
2022/06/24 08:42:39;;;;;;;9.75;3.62;;;;;;;25.67;45.60;101323.25;1708215;82;21016;-86
2022/06/24 08:45:06;;;;;;;2.98;2.72;;;;;;;25.71;45.52;101320.41;1707467;82;21086;-86
2022/06/24 08:47:33;;;;;;;3.02;2.55;;;;;;;25.76;45.27;101318.94;1704319;82;21744;-86
2022/06/24 08:50:00;;;;;;;4.03;2.50;;;;;;;25.75;44.85;101306.37;1703363;82;21127;-86
2022/06/24 08:52:27;;;;;;;3.65;2.50;;;;;;;25.75;44.80;101314.02;1690224;82;21901;-86
2022/06/24 08:54:53;;;;;;;3.30;2.75;;;;;;;25.70;44.71;101298.91;1704510;82;21106;-87
2022/06/24 08:57:20;;;;;;;4.72;3.87;;;;;;;25.79;44.52;101310.77;1705712;83;22118;-86
2022/06/24 08:59:47;;;;;;;4.03;2.55;;;;;;;25.78;44.27;101311.21;1694401;82;21774;-86
2022/06/24 09:02:14;;;;;;;8.38;5.25;;;;;;;25.77;44.12;101309.46;1678868;82;21710;-87
2022/06/24 09:04:45;;;;;;;6.80;2.98;;;;;;;25.79;44.16;101308.95;1654999;84;20977;-86
2022/06/24 09:07:27;;;;;;;5.10;3.62;;;;;;;25.84;44.37;101304.75;1676253;84;21116;-86
2022/06/24 09:10:01;;;;;;;6.12;2.90;;;;;;;25.90;44.35;101306.38;1682669;83;21133;-86
2022/06/24 09:12:29;;;;;;;6.50;3.10;;;;;;;25.95;44.22;101292.33;1683013;83;21808;-87
2022/06/24 09:15:01;;;;;;;5.40;3.15;;;;;;;25.99;44.36;101294.87;1659189;85;21031;-87
2022/06/24 09:17:32;;;;;;;5.55;2.95;;;;;;;26.05;44.33;101290.23;1654875;83;20994;-86
2022/06/24 09:20:14;;;;;;;6.78;3.05;;;;;;;26.09;44.39;101291.45;1682132;83;21095;-86
2022/06/24 09:22:41;;;;;;;6.35;3.10;;;;;;;26.12;44.04;101292.69;1657498;83;21014;-86
2022/06/24 09:25:08;;;;;;;7.70;3.27;;;;;;;26.15;44.13;101293.95;1684885;83;22389;-87
2022/06/24 09:27:35;;;;;;;4.45;2.75;;;;;;;26.19;43.70;101291.57;1685334;83;21037;-86
2022/06/24 09:30:02;;;;;;;3.90;2.75;;;;;;;26.22;43.90;101292.40;1684805;85;21433;-87
2022/06/24 09:32:29;;;;;;;4.37;2.50;;;;;;;26.26;43.97;101294.06;1685779;83;20990;-87
2022/06/24 09:35:04;;;;;;;3.47;3.15;;;;;;;26.30;43.51;101293.06;1684376;83;21002;-87
2022/06/24 09:37:47;;;;;;;3.10;2.77;;;;;;;26.31;43.50;101288.06;1683694;83;21543;-87
2022/06/24 09:40:22;;;;;;;3.30;2.60;;;;;;;26.34;43.65;101282.10;1672105;83;21508;-87
2022/06/24 09:42:58;;;;;;;2.98;2.67;;;;;;;26.41;43.39;101286.84;1683580;83;21089;-86
2022/06/24 09:45:26;;;;;;;3.62;2.72;;;;;;;26.44;43.32;101279.11;1683824;83;21081;-86
2022/06/24 09:47:53;;;;;;;5.10;2.87;;;;;;;26.46;43.21;101280.81;1685799;83;20937;-86
2022/06/24 09:50:21;;;;;;;6.85;3.20;;;;;;;26.50;43.35;101271.70;1672542;83;21761;-86
2022/06/24 09:52:47;;;;;;;14.00;9.63;;;;;;;26.52;43.28;101271.19;1683375;83;21073;-86
2022/06/24 09:55:14;;;;;;;9.83;4.15;;;;;;;26.57;43.36;101267.84;1682742;83;21062;-86
2022/06/24 09:57:41;;;;;;;3.92;3.17;;;;;;;26.63;43.25;101264.56;1683550;83;21069;-85
2022/06/24 10:02:54;;;;;;;6.83;3.05;;;;;;;26.73;43.35;101262.85;1643390;84;21774;-87
2022/06/24 10:05:21;;;;;;;4.03;3.00;;;;;;;26.78;43.27;101258.62;1638248;84;22286;-87
2022/06/24 10:07:48;;;;;;;7.72;2.90;;;;;;;26.76;43.15;101263.20;1652799;84;21623;-86
2022/06/24 10:10:16;;;;;;;8.75;3.00;;;;;;;26.73;43.08;101260.16;1664707;84;21074;-87
2022/06/24 10:12:52;;;;;;;4.47;2.85;;;;;;;26.73;43.17;101252.52;1662983;84;22279;-93
2022/06/24 10:15:21;;;;;;;6.85;3.20;;;;;;;26.74;43.21;101252.92;1673408;84;22016;-92
2022/06/24 10:17:47;;;;;;;6.35;2.62;;;;;;;26.75;43.21;101254.23;1657775;84;21118;-92
2022/06/24 10:20:14;;;;;;;5.45;2.52;;;;;;;26.75;43.15;101255.58;1674655;84;21546;-93
2022/06/24 10:22:55;;;;;;;6.75;2.77;;;;;;;26.74;42.91;101248.88;1653959;84;21101;-91
2022/06/24 10:25:18;;;;;;;8.00;2.20;;;;;;;26.72;42.73;101249.39;1667617;84;21521;-91
2022/06/24 10:28:04;;;;;;;8.08;2.80;;;;;;;26.70;42.82;101244.05;1659045;85;21764;-92
2022/06/24 10:30:57;;;;;;;5.78;2.30;;;;;;;26.67;42.48;101240.12;1658325;84;22328;-92
2022/06/24 10:33:28;;;;;;;4.67;2.17;;;;;;;26.63;42.62;101234.38;1660796;84;21143;-93
2022/06/24 10:36:04;;;;;;;5.03;2.20;;;;;;;26.64;42.63;101236.16;1674983;84;21045;-92
2022/06/24 10:38:40;;;;;;;5.70;2.80;;;;;;;26.62;42.45;101235.33;1658589;84;21713;-90
2022/06/24 10:41:10;;;;;;;3.17;1.95;;;;;;;26.61;42.60;101229.98;1664836;84;21852;-92
2022/06/24 10:43:42;;;;;;;3.05;2.35;;;;;;;26.62;42.54;101225.01;1674078;84;21096;-93
2022/06/24 10:46:16;;;;;;;3.72;2.20;;;;;;;26.64;42.22;101229.41;1673471;84;21769;-94
2022/06/24 10:48:55;;;;;;;3.30;2.08;;;;;;;26.58;41.85;101236.34;1674467;84;21302;-93
2022/06/24 10:51:22;;;;;;;3.15;2.45;;;;;;;26.48;41.74;101234.40;1675131;84;21081;-94
2022/06/24 10:54:09;;;;;;;6.25;2.45;;;;;;;26.40;41.67;101235.13;1674523;84;21750;-93
2022/06/24 10:56:59;;;;;;;2.33;2.08;;;;;;;26.38;41.76;101231.61;1674361;85;21050;-93
2022/06/24 10:59:21;;;;;;;2.47;2.20;;;;;;;26.37;41.66;101224.43;1661090;84;21077;-95
2022/06/24 11:01:49;;;;;;;4.08;2.10;;;;;;;26.37;41.46;101224.43;1677274;84;21093;-93
2022/06/24 11:04:24;;;;;;;4.92;2.15;;;;;;;26.34;41.11;101224.55;1672713;85;22228;-92
2022/06/24 11:07:11;;;;;;;2.30;1.85;;;;;;;26.34;41.23;101229.47;1640057;86;21759;-92
2022/06/24 11:09:38;;;;;;;3.45;2.10;;;;;;;26.28;41.22;101205.39;1702741;82;21720;-93
2022/06/24 11:12:06;;;;;;;2.92;2.25;;;;;;;26.42;41.54;101221.59;1682776;83;21043;-93
2022/06/24 11:14:33;;;;;;;5.10;2.35;;;;;;;26.48;41.56;101225.42;1707096;82;21140;-92
2022/06/24 11:17:08;;;;;;;2.92;1.80;;;;;;;26.50;41.25;101232.56;1681265;83;21601;-92
2022/06/24 11:19:41;;;;;;;4.03;2.20;;;;;;;26.50;41.19;101217.71;1705398;83;21771;-92
2022/06/24 11:22:08;;;;;;;3.37;2.10;;;;;;;26.54;41.31;101220.72;1707198;82;21153;-94
2022/06/24 11:24:37;;;;;;;2.00;1.85;;;;;;;26.56;40.87;101219.32;1710427;82;20995;-93
2022/06/24 11:27:06;;;;;;;2.72;2.05;;;;;;;26.54;40.71;101219.81;1683393;83;21090;-93
2022/06/24 11:29:53;;;;;;;5.67;2.00;;;;;;;26.51;40.63;101214.53;1672859;84;21089;-92
2022/06/24 11:32:20;;;;;;;1.98;1.77;;;;;;;26.51;40.90;101219.45;1672163;84;22576;-93
2022/06/24 11:34:48;;;;;;;3.40;1.87;;;;;;;26.55;41.04;101210.31;1670503;84;21546;-92
2022/06/24 11:37:21;;;;;;;6.67;2.10;;;;;;;26.58;40.33;101212.92;1706527;83;21079;-92
2022/06/24 11:39:49;;;;;;;3.93;1.80;;;;;;;26.54;39.90;101212.62;1697124;82;21464;-93
2022/06/24 11:42:23;;;;;;;4.15;3.00;;;;;;;26.54;40.19;101213.06;1683565;83;21999;-92
2022/06/24 11:44:52;;;;;;;2.98;2.00;;;;;;;26.58;40.38;101208.00;1689221;83;21117;-92